createdAt,value
2019-04-26T00:01:05.882Z,15.80
2019-04-26T00:03:40.625Z,15.80
2019-04-26T00:06:10.593Z,15.80
2019-04-26T00:08:39.866Z,15.70
2019-04-26T00:11:18.380Z,15.70
2019-04-26T00:14:07.394Z,15.70
2019-04-26T00:16:50.790Z,15.70
2019-04-26T00:19:19.534Z,15.60
2019-04-26T00:21:48.561Z,15.60
2019-04-26T00:24:17.645Z,15.50
2019-04-26T00:26:46.333Z,15.50
2019-04-26T00:29:15.121Z,15.50
2019-04-26T00:31:43.840Z,15.40
2019-04-26T00:34:13.571Z,15.40
2019-04-26T00:36:42.449Z,15.40
2019-04-26T00:39:11.689Z,15.30
2019-04-26T00:41:42.039Z,15.30
2019-04-26T00:44:10.989Z,15.30
2019-04-26T00:46:42.572Z,15.30
2019-04-26T00:49:12.607Z,15.20
2019-04-26T00:51:43.316Z,15.20
2019-04-26T00:54:14.077Z,15.20
2019-04-26T00:56:43.488Z,15.10
2019-04-26T00:59:12.547Z,15.10
2019-04-26T01:01:45.185Z,15.10
2019-04-26T01:04:14.553Z,15.10
2019-04-26T01:06:45.873Z,15.10
2019-04-26T01:09:15.885Z,15.10
2019-04-26T01:11:44.813Z,15.00
2019-04-26T01:14:14.373Z,15.10
2019-04-26T01:16:43.206Z,15.00
2019-04-26T01:19:14.025Z,15.10
2019-04-26T01:21:47.990Z,15.10
2019-04-26T01:24:19.374Z,15.00
2019-04-26T01:26:49.914Z,15.00
2019-04-26T01:29:21.698Z,15.00
2019-04-26T01:32:00.935Z,15.00
2019-04-26T01:34:30.425Z,15.00
2019-04-26T01:37:00.687Z,15.00
2019-04-26T01:39:29.950Z,15.00
2019-04-26T01:42:14.177Z,15.10
2019-04-26T01:44:53.029Z,15.10
2019-04-26T01:47:22.264Z,15.00
2019-04-26T01:49:51.472Z,15.00
2019-04-26T01:52:22.382Z,15.00
2019-04-26T01:54:50.842Z,15.00
2019-04-26T01:57:23.616Z,15.00
2019-04-26T01:59:57.205Z,14.90
2019-04-26T02:02:43.142Z,14.90
2019-04-26T02:05:22.584Z,14.90
2019-04-26T02:07:52.561Z,14.90
2019-04-26T02:10:24.053Z,14.90
2019-04-26T02:12:54.797Z,14.80
2019-04-26T02:15:27.240Z,14.80
2019-04-26T02:17:58.793Z,14.80
2019-04-26T02:21:25.145Z,14.80
2019-04-26T02:24:06.014Z,14.80
2019-04-26T02:26:36.074Z,14.80
2019-04-26T02:29:08.392Z,14.80
2019-04-26T02:31:39.868Z,14.80
2019-04-26T02:34:09.510Z,14.80
2019-04-26T02:36:56.328Z,14.80
2019-04-26T02:39:21.730Z,14.80
2019-04-26T02:41:54.288Z,14.70
2019-04-26T02:44:29.008Z,14.70
2019-04-26T02:47:41.265Z,14.70
2019-04-26T02:50:17.058Z,14.80
2019-04-26T02:53:21.707Z,14.80
2019-04-26T02:56:12.786Z,14.80
2019-04-26T02:59:08.425Z,14.80
2019-04-26T03:01:38.716Z,14.80
2019-04-26T03:04:08.023Z,14.80
2019-04-26T03:06:40.726Z,14.80
2019-04-26T03:09:09.719Z,14.80
2019-04-26T03:11:40.745Z,14.80
2019-04-26T03:14:32.492Z,14.80
2019-04-26T03:17:11.337Z,14.80
2019-04-26T03:19:53.179Z,14.70
2019-04-26T03:22:39.491Z,14.70
2019-04-26T03:25:40.234Z,14.70
2019-04-26T03:28:17.894Z,14.70
2019-04-26T03:30:54.889Z,14.70
2019-04-26T03:33:52.428Z,14.70
2019-04-26T03:37:19.028Z,14.70
2019-04-26T03:39:48.109Z,14.60
2019-04-26T03:42:27.594Z,14.60
2019-04-26T03:45:18.462Z,14.60
2019-04-26T03:48:13.273Z,14.60
2019-04-26T03:50:50.723Z,14.50
2019-04-26T03:53:35.471Z,14.50
2019-04-26T03:56:23.101Z,14.50
2019-04-26T03:59:23.659Z,14.50
2019-04-26T04:02:09.035Z,14.50
2019-04-26T04:04:48.164Z,14.50
2019-04-26T04:07:35.652Z,14.50
2019-04-26T04:09:55.510Z,14.50
2019-04-26T04:12:33.803Z,14.50
2019-04-26T04:15:12.926Z,14.50
2019-04-26T04:18:12.693Z,14.40
2019-04-26T04:21:26.060Z,14.50
2019-04-26T04:24:09.525Z,14.50
2019-04-26T04:26:55.129Z,14.40
2019-04-26T04:29:50.458Z,14.40
2019-04-26T04:32:45.861Z,14.40
2019-04-26T04:35:17.394Z,14.40
2019-04-26T04:38:08.425Z,14.40
2019-04-26T04:41:08.526Z,14.30
2019-04-26T04:43:50.484Z,14.30
2019-04-26T04:47:00.413Z,14.30
2019-04-26T04:49:52.726Z,14.30
2019-04-26T04:52:37.064Z,14.30
2019-04-26T04:55:17.842Z,14.30
2019-04-26T04:57:58.199Z,14.30
2019-04-26T05:00:51.423Z,14.30
2019-04-26T05:03:37.789Z,14.20
2019-04-26T05:06:34.351Z,14.20
2019-04-26T05:09:10.927Z,14.30
2019-04-26T05:12:09.765Z,14.20
2019-04-26T05:14:50.144Z,14.20
2019-04-26T05:18:06.630Z,14.20
2019-04-26T05:20:44.446Z,14.20
2019-04-26T05:23:48.901Z,14.20
2019-04-26T05:26:53.578Z,14.20
2019-04-26T05:29:57.389Z,14.20
2019-04-26T05:32:53.197Z,14.20
2019-04-26T05:35:42.465Z,14.20
2019-04-26T05:38:44.043Z,14.20
2019-04-26T05:41:48.119Z,14.20
2019-04-26T05:44:30.359Z,14.10
2019-04-26T05:48:03.134Z,14.10
2019-04-26T05:51:32.759Z,14.10
2019-04-26T05:54:56.325Z,14.10
2019-04-26T05:57:40.749Z,14.10
2019-04-26T06:00:50.448Z,14.10
2019-04-26T06:04:15.589Z,14.00
2019-04-26T06:06:57.250Z,14.10
2019-04-26T06:10:21.769Z,14.10
2019-04-26T06:13:38.584Z,14.10
2019-04-26T06:16:42.205Z,14.10
2019-04-26T06:19:28.234Z,14.10
2019-04-26T06:22:14.755Z,14.10
2019-04-26T06:25:06.543Z,14.10
2019-04-26T06:27:58.374Z,14.20
2019-04-26T06:30:45.249Z,14.20
2019-04-26T06:33:21.884Z,14.30
2019-04-26T06:35:54.624Z,14.30
2019-04-26T06:39:04.200Z,14.40
2019-04-26T06:42:11.230Z,14.40
2019-04-26T06:45:22.695Z,14.50
2019-04-26T06:48:00.545Z,14.50
2019-04-26T06:50:37.526Z,14.60
2019-04-26T06:53:40.386Z,14.60
2019-04-26T06:56:33.657Z,14.60
2019-04-26T06:59:36.261Z,14.70
2019-04-26T07:02:09.566Z,14.70
2019-04-26T07:05:08.809Z,14.70
2019-04-26T07:07:59.110Z,14.70
2019-04-26T07:11:09.598Z,14.80
2019-04-26T07:14:08.778Z,14.80
2019-04-26T07:17:02.510Z,14.90
2019-04-26T07:20:11.592Z,14.90
2019-04-26T07:23:09.550Z,15.00
2019-04-26T07:26:38.070Z,15.00
2019-04-26T07:29:30.892Z,15.00
2019-04-26T07:32:17.367Z,15.10
2019-04-26T07:35:13.006Z,15.10
2019-04-26T07:39:14.815Z,15.10
2019-04-26T07:42:11.617Z,15.10
2019-04-26T07:45:06.063Z,15.20
2019-04-26T07:48:30.487Z,15.10
2019-04-26T07:51:48.386Z,15.20
2019-04-26T07:54:54.209Z,15.20
2019-04-26T07:57:50.242Z,15.30
2019-04-26T08:00:23.709Z,15.50
2019-04-26T08:03:08.776Z,15.60
2019-04-26T08:06:09.978Z,15.60
2019-04-26T08:08:47.025Z,15.70
2019-04-26T08:11:22.389Z,15.80
2019-04-26T08:14:29.601Z,15.90
2019-04-26T08:17:22.025Z,15.90
2019-04-26T08:20:08.999Z,15.90
2019-04-26T08:22:37.111Z,15.90
2019-04-26T08:25:08.279Z,16.00
2019-04-26T08:27:38.906Z,16.00
2019-04-26T08:30:17.087Z,16.00
2019-04-26T08:32:52.293Z,16.10
2019-04-26T08:35:27.669Z,16.10
2019-04-26T08:38:16.033Z,16.10
2019-04-26T08:40:40.945Z,16.20
2019-04-26T08:43:34.806Z,16.20
2019-04-26T08:46:14.275Z,16.20
2019-04-26T08:49:06.505Z,16.30
2019-04-26T08:51:37.961Z,16.40
2019-04-26T08:54:12.365Z,16.30
2019-04-26T08:56:44.617Z,16.40
2019-04-26T08:59:20.150Z,16.50
2019-04-26T09:02:10.575Z,16.50
2019-04-26T09:05:01.185Z,16.60
2019-04-26T09:07:33.010Z,16.60
2019-04-26T09:10:10.740Z,16.70
2019-04-26T09:12:37.565Z,16.80
2019-04-26T09:15:10.461Z,16.90
2019-04-26T09:17:39.286Z,17.00
2019-04-26T09:20:09.623Z,17.10
2019-04-26T09:22:48.397Z,17.20
2019-04-26T09:25:23.295Z,17.40
2019-04-26T09:28:16.274Z,17.50
2019-04-26T09:30:52.179Z,17.60
2019-04-26T09:33:31.676Z,17.70
2019-04-26T09:36:01.678Z,17.80
2019-04-26T09:38:30.395Z,17.90
2019-04-26T09:41:00.644Z,17.90
2019-04-26T09:43:36.718Z,18.00
2019-04-26T09:46:23.632Z,18.10
2019-04-26T09:48:58.185Z,18.20
2019-04-26T09:51:26.929Z,18.20
2019-04-26T09:53:55.742Z,18.30
2019-04-26T09:56:24.547Z,18.30
2019-04-26T09:58:53.261Z,18.40
2019-04-26T10:01:24.119Z,18.50
2019-04-26T10:03:52.440Z,18.60
2019-04-26T10:06:21.233Z,18.60
2019-04-26T10:08:52.373Z,18.70
2019-04-26T10:11:22.642Z,18.70
2019-04-26T10:13:56.797Z,18.60
2019-04-26T10:16:37.251Z,18.60
2019-04-26T10:19:11.204Z,18.70
2019-04-26T10:21:39.940Z,18.70
2019-04-26T10:24:08.833Z,18.70
2019-04-26T10:26:37.584Z,18.70
2019-04-26T10:29:06.411Z,18.70
2019-04-26T10:31:35.203Z,18.70
2019-04-26T10:34:07.654Z,18.70
2019-04-26T10:36:34.572Z,18.70
2019-04-26T10:39:04.692Z,18.80
2019-04-26T10:41:33.472Z,18.90
2019-04-26T10:44:02.212Z,18.90
2019-04-26T10:46:31.026Z,19.00
2019-04-26T10:49:08.943Z,19.00
2019-04-26T10:51:38.678Z,19.00
2019-04-26T10:54:12.849Z,19.00
2019-04-26T10:56:50.469Z,19.10
2019-04-26T10:59:35.257Z,19.20
2019-04-26T11:02:05.438Z,19.20
2019-04-26T11:04:37.302Z,19.30
2019-04-26T11:07:04.698Z,19.40
2019-04-26T11:09:38.130Z,19.50
2019-04-26T11:12:08.269Z,19.50
2019-04-26T11:14:37.001Z,19.60
2019-04-26T11:17:05.830Z,19.70
2019-04-26T11:19:35.492Z,19.70
2019-04-26T11:22:05.147Z,19.80
2019-04-26T11:24:33.890Z,19.80
2019-04-26T11:27:05.268Z,19.90
2019-04-26T11:29:33.186Z,19.90
2019-04-26T11:32:02.661Z,19.90
2019-04-26T11:34:32.365Z,19.90
2019-04-26T11:37:01.141Z,19.90
2019-04-26T11:39:29.929Z,19.90
2019-04-26T11:41:58.685Z,20.00
2019-04-26T11:44:28.491Z,20.00
2019-04-26T11:46:59.415Z,20.10
2019-04-26T11:49:27.760Z,20.20
2019-04-26T11:51:58.602Z,20.20
2019-04-26T11:54:27.043Z,20.30
2019-04-26T11:56:55.840Z,20.30
2019-04-26T11:59:27.090Z,20.30
2019-04-26T12:01:55.151Z,20.40
2019-04-26T12:04:42.317Z,20.40
2019-04-26T12:07:21.333Z,20.40
2019-04-26T12:09:51.873Z,20.40
2019-04-26T12:12:20.590Z,20.20
2019-04-26T12:14:49.331Z,20.20
2019-04-26T12:17:18.065Z,20.30
2019-04-26T12:19:48.186Z,20.40
2019-04-26T12:22:39.336Z,20.40
2019-04-26T12:25:08.368Z,20.50
2019-04-26T12:27:37.444Z,20.70
2019-04-26T12:30:06.731Z,20.80
2019-04-26T12:32:35.435Z,20.90
2019-04-26T12:35:04.344Z,21.10
2019-04-26T12:37:33.087Z,21.30
2019-04-26T12:40:01.889Z,21.40
2019-04-26T12:42:30.629Z,21.50
2019-04-26T12:45:18.370Z,21.60
2019-04-26T12:47:50.262Z,21.70
2019-04-26T12:50:19.155Z,21.70
2019-04-26T12:52:51.350Z,21.60
2019-04-26T12:55:20.131Z,21.70
2019-04-26T12:57:49.129Z,21.70
2019-04-26T13:00:24.079Z,21.80
2019-04-26T13:02:54.200Z,21.90
2019-04-26T13:05:23.678Z,22.10
2019-04-26T13:07:53.638Z,22.20
2019-04-26T13:10:53.659Z,22.30
2019-04-26T13:13:44.948Z,22.40
2019-04-26T13:16:36.334Z,22.50
2019-04-26T13:19:06.176Z,22.50
2019-04-26T13:21:37.260Z,22.60
2019-04-26T13:24:06.270Z,22.60
2019-04-26T13:26:36.397Z,22.60
2019-04-26T13:29:05.489Z,22.60
2019-04-26T13:31:34.201Z,22.50
2019-04-26T13:34:04.451Z,22.50
2019-04-26T13:36:34.004Z,22.40
2019-04-26T13:39:02.950Z,22.30
2019-04-26T13:41:34.909Z,22.30
2019-04-26T13:44:05.776Z,22.30
2019-04-26T13:46:50.856Z,22.30
2019-04-26T13:49:32.567Z,22.40
2019-04-26T13:52:01.323Z,22.30
2019-04-26T13:54:30.058Z,22.40
2019-04-26T13:56:58.817Z,22.40
2019-04-26T13:59:28.126Z,22.40
2019-04-26T14:02:10.634Z,22.40
2019-04-26T14:04:28.742Z,22.50
2019-04-26T14:06:57.492Z,22.50
2019-04-26T14:09:26.197Z,22.60
2019-04-26T14:11:58.127Z,22.70
2019-04-26T14:14:25.585Z,22.80
2019-04-26T14:16:55.777Z,22.80
2019-04-26T14:19:24.881Z,22.90
2019-04-26T14:21:53.803Z,22.90
2019-04-26T14:24:39.886Z,22.90
2019-04-26T14:27:21.421Z,22.90
2019-04-26T14:29:50.137Z,22.90
2019-04-26T14:32:22.861Z,22.90
2019-04-26T14:34:49.324Z,22.80
2019-04-26T14:37:18.108Z,22.80
2019-04-26T14:39:50.674Z,22.90
2019-04-26T14:42:17.462Z,22.90
2019-04-26T14:44:49.599Z,22.80
2019-04-26T14:47:18.094Z,22.80
2019-04-26T14:49:47.305Z,22.80
2019-04-26T14:52:16.053Z,22.70
2019-04-26T14:54:46.004Z,22.70
2019-04-26T14:57:22.163Z,22.80
2019-04-26T14:59:56.908Z,22.80
2019-04-26T15:02:43.070Z,22.80
2019-04-26T15:05:43.105Z,23.00
2019-04-26T15:08:11.683Z,23.10
2019-04-26T15:10:46.730Z,23.20
2019-04-26T15:13:19.917Z,23.30
2019-04-26T15:15:42.667Z,23.40
2019-04-26T15:18:12.356Z,23.50
2019-04-26T15:20:41.086Z,23.60
2019-04-26T15:23:09.847Z,23.80
2019-04-26T15:25:41.403Z,24.00
2019-04-26T15:28:11.991Z,24.10
2019-04-26T15:30:46.271Z,24.30
2019-04-26T15:33:12.656Z,24.30
2019-04-26T15:35:42.156Z,24.30
2019-04-26T15:38:11.024Z,24.20
2019-04-26T15:40:50.696Z,24.20
2019-04-26T15:43:26.300Z,24.30
2019-04-26T15:46:17.951Z,24.40
2019-04-26T15:49:22.476Z,24.50
2019-04-26T15:51:56.382Z,24.70
2019-04-26T15:54:23.701Z,25.00
2019-04-26T15:56:53.911Z,25.20
2019-04-26T15:59:25.349Z,25.30
2019-04-26T16:01:56.146Z,25.20
2019-04-26T16:04:27.085Z,25.10
2019-04-26T16:06:55.964Z,24.90
2019-04-26T16:09:24.748Z,24.80
2019-04-26T16:11:55.256Z,24.70
2019-04-26T16:14:24.847Z,24.60
2019-04-26T16:16:54.410Z,24.50
2019-04-26T16:19:26.666Z,24.30
2019-04-26T16:21:55.323Z,24.10
2019-04-26T16:24:27.810Z,23.90
2019-04-26T16:26:56.259Z,23.80
2019-04-26T16:29:34.856Z,23.80
2019-04-26T16:32:16.886Z,23.80
2019-04-26T16:34:47.847Z,23.70
2019-04-26T16:37:21.673Z,23.60
2019-04-26T16:39:48.704Z,23.50
2019-04-26T16:42:17.694Z,23.50
2019-04-26T16:44:46.520Z,23.30
2019-04-26T16:47:15.241Z,23.30
2019-04-26T16:49:46.469Z,23.20
2019-04-26T16:52:14.708Z,23.20
2019-04-26T16:54:43.476Z,23.10
2019-04-26T16:57:12.957Z,23.00
2019-04-26T16:59:47.680Z,22.90
2019-04-26T17:02:15.550Z,22.80
2019-04-26T17:04:43.557Z,22.70
2019-04-26T17:07:13.280Z,22.70
2019-04-26T17:09:59.772Z,22.60
2019-04-26T17:12:14.953Z,22.60
2019-04-26T17:14:47.479Z,22.50
2019-04-26T17:17:14.541Z,22.40
2019-04-26T17:19:43.391Z,22.30
2019-04-26T17:22:24.561Z,22.20
2019-04-26T17:25:24.388Z,22.10
2019-04-26T17:27:48.786Z,22.00
2019-04-26T17:30:21.542Z,22.00
2019-04-26T17:32:51.608Z,21.90
2019-04-26T17:35:21.010Z,21.80
2019-04-26T17:37:50.213Z,21.80
2019-04-26T17:40:23.622Z,21.70
2019-04-26T17:42:51.149Z,21.60
2019-04-26T17:45:21.263Z,21.50
2019-04-26T17:47:50.698Z,21.50
2019-04-26T17:50:20.696Z,21.40
2019-04-26T17:52:51.409Z,21.40
2019-04-26T17:55:20.044Z,21.40
2019-04-26T17:57:50.676Z,21.30
2019-04-26T18:00:27.272Z,21.30
2019-04-26T18:02:52.974Z,21.10
2019-04-26T18:05:24.427Z,21.10
2019-04-26T18:07:58.506Z,21.10
2019-04-26T18:10:22.801Z,21.20
2019-04-26T18:12:51.505Z,21.20
2019-04-26T18:15:20.437Z,21.20
2019-04-26T18:18:09.717Z,21.20
2019-04-26T18:21:00.297Z,21.20
2019-04-26T18:23:30.510Z,21.20
2019-04-26T18:25:59.371Z,21.20
2019-04-26T18:28:28.135Z,21.20
2019-04-26T18:30:56.980Z,21.20
2019-04-26T18:33:26.112Z,21.20
2019-04-26T18:35:57.426Z,21.20
2019-04-26T18:38:25.405Z,21.20
2019-04-26T18:41:01.068Z,21.20
2019-04-26T18:43:24.578Z,21.20
2019-04-26T18:45:58.670Z,21.20
2019-04-26T18:48:25.619Z,21.20
2019-04-26T18:50:55.384Z,21.20
2019-04-26T18:53:43.815Z,21.10
2019-04-26T18:56:12.938Z,21.10
2019-04-26T18:58:41.649Z,21.10
2019-04-26T19:01:13.580Z,21.00
2019-04-26T19:03:43.715Z,21.00
2019-04-26T19:06:26.560Z,21.00
2019-04-26T19:08:47.556Z,20.90
2019-04-26T19:11:13.761Z,20.90
2019-04-26T19:14:15.314Z,20.80
2019-04-26T19:17:02.051Z,20.80
2019-04-26T19:19:53.142Z,20.70
2019-04-26T19:22:22.577Z,20.60
2019-04-26T19:24:55.780Z,20.50
2019-04-26T19:27:26.530Z,20.40
2019-04-26T19:29:52.524Z,20.30
2019-04-26T19:32:21.853Z,20.20
2019-04-26T19:34:52.486Z,20.10
2019-04-26T19:37:23.019Z,20.10
2019-04-26T19:39:51.813Z,20.00
2019-04-26T19:42:20.553Z,19.90
2019-04-26T19:45:03.139Z,19.80
2019-04-26T19:47:39.450Z,19.70
2019-04-26T19:50:22.994Z,19.60
2019-04-26T19:53:01.606Z,19.50
2019-04-26T19:55:48.539Z,19.40
2019-04-26T19:58:20.616Z,19.30
2019-04-26T20:00:49.977Z,19.20
2019-04-26T20:03:18.855Z,19.00
2019-04-26T20:05:47.718Z,18.90
2019-04-26T20:08:16.441Z,18.80
2019-04-26T20:10:45.924Z,18.80
2019-04-26T20:13:16.473Z,18.70
2019-04-26T20:15:45.609Z,18.70
2019-04-26T20:18:17.255Z,18.50
2019-04-26T20:20:44.826Z,18.40
2019-04-26T20:23:13.554Z,18.40
2019-04-26T20:25:42.416Z,18.50
2019-04-26T20:28:12.200Z,18.50
2019-04-26T20:30:53.018Z,18.50
2019-04-26T20:33:22.437Z,18.50
2019-04-26T20:35:51.533Z,18.50
2019-04-26T20:38:20.235Z,18.50
2019-04-26T20:40:49.077Z,18.50
2019-04-26T20:43:24.483Z,18.50
2019-04-26T20:46:07.660Z,18.50
2019-04-26T20:48:18.773Z,18.50
2019-04-26T20:50:47.679Z,18.50
2019-04-26T20:53:16.378Z,18.40
2019-04-26T20:55:47.101Z,18.40
2019-04-26T20:58:15.653Z,18.40
2019-04-26T21:00:54.108Z,18.40
2019-04-26T21:03:23.758Z,18.30
2019-04-26T21:05:46.705Z,18.30
2019-04-26T21:08:19.467Z,18.30
2019-04-26T21:10:47.063Z,18.30
2019-04-26T21:13:15.854Z,18.20
2019-04-26T21:15:56.021Z,18.20
2019-04-26T21:18:15.025Z,18.20
2019-04-26T21:20:46.254Z,18.10
2019-04-26T21:23:15.372Z,18.10
2019-04-26T21:25:57.559Z,18.10
2019-04-26T21:28:38.138Z,18.00
2019-04-26T21:31:29.318Z,18.00
2019-04-26T21:34:01.090Z,17.90
2019-04-26T21:36:47.805Z,17.80
2019-04-26T21:39:23.469Z,17.80
2019-04-26T21:41:53.208Z,17.80
2019-04-26T21:44:22.070Z,17.80
2019-04-26T21:46:55.769Z,17.70
2019-04-26T21:49:22.219Z,17.70
2019-04-26T21:51:53.802Z,17.70
2019-04-26T21:54:24.916Z,17.60
2019-04-26T21:56:53.745Z,17.60
2019-04-26T21:59:24.284Z,17.60
2019-04-26T22:01:58.806Z,17.60
2019-04-26T22:04:24.472Z,17.50
2019-04-26T22:06:55.669Z,17.50
2019-04-26T22:09:43.044Z,17.50
2019-04-26T22:12:14.689Z,17.40
2019-04-26T22:14:46.457Z,17.30
2019-04-26T22:17:36.517Z,17.30
2019-04-26T22:20:23.970Z,17.10
2019-04-26T22:23:23.854Z,17.10
2019-04-26T22:25:54.299Z,17.10
2019-04-26T22:28:23.574Z,17.20
2019-04-26T22:30:55.143Z,17.10
2019-04-26T22:33:27.378Z,17.10
2019-04-26T22:35:55.360Z,17.10
2019-04-26T22:38:26.758Z,17.00
2019-04-26T22:40:56.254Z,17.00
2019-04-26T22:43:44.227Z,16.90
2019-04-26T22:46:29.902Z,16.90
2019-04-26T22:49:01.252Z,16.80
2019-04-26T22:51:28.573Z,16.70
2019-04-26T22:54:04.310Z,16.60
2019-04-26T22:56:32.541Z,16.50
2019-04-26T22:59:04.705Z,16.50
2019-04-26T23:01:33.041Z,16.40
2019-04-26T23:04:03.436Z,16.30
2019-04-26T23:06:33.742Z,16.30
2019-04-26T23:09:02.631Z,16.20
2019-04-26T23:11:31.477Z,15.60
2019-04-26T23:14:17.751Z,16.10
2019-04-26T23:17:07.810Z,16.00
2019-04-26T23:19:43.797Z,16.00
2019-04-26T23:22:12.874Z,15.90
2019-04-26T23:24:42.802Z,15.90
2019-04-26T23:27:16.385Z,15.80
2019-04-26T23:29:43.549Z,15.80
2019-04-26T23:32:18.472Z,15.70
2019-04-26T23:34:44.462Z,15.60
2019-04-26T23:37:13.319Z,15.60
2019-04-26T23:39:44.477Z,15.50
2019-04-26T23:42:16.438Z,15.40
2019-04-26T23:44:44.084Z,15.40
2019-04-26T23:47:22.452Z,15.30
2019-04-26T23:49:43.454Z,15.30
2019-04-26T23:52:14.462Z,15.20
2019-04-26T23:54:42.655Z,15.20
2019-04-26T23:57:11.399Z,15.10
2019-04-26T23:59:40.137Z,15.10
